samedi 04 novembre 2017

 
L'ENFER DE CÉROUX - CÉROUX-MOUSTY
DISTANCE : 13.08 km
samedi 04 novembre 2017
 
Place dos NOM Catégorie Pl/cat temps temps/km Vitesse
1 360 ADRIEN MONTOISY M/30-39 1 00:46:14 03:32 16.97
2 363 JEREMY MORREN M/20-29 1 00:47:56 03:40 16.37
3 328 ARNAUD DESCAMPE M/20-29 2 00:47:56 03:40 16.37
4 356 SAMUEL THIM M/30-39 2 00:48:27 03:42 16.20
5 307 ALEXANDRE HEUNINCK M/20-29 3 00:49:28 03:47 15.87
6 358 SEBASTIEN DELANNOY M/30-39 3 00:49:48 03:48 15.76
7 198 TAHA FADOUL M/40-49 1 00:50:31 03:52 15.54
8 359 GUILLAUME VALENTIN M/15-19 1 00:50:43 03:53 15.47
9 339 ELIO POGGI M/20-29 4 00:50:46 03:53 15.46
10 355 QUENTIN BUIS M/20-29 5 00:51:27 03:56 15.25
11 106 LAURENT RECOUR M/40-49 2 00:51:45 03:57 15.17
12 300 FREDERIC DEBASTE M/30-39 4 00:52:28 04:01 14.96
13 343 JEAN-PHILIPPE RATINCKX M/20-29 6 00:52:38 04:01 14.91
14 338 REMY FERIER M/20-29 7 00:53:49 04:07 14.58
15 347 BRUNO WALRAVENS M/30-39 5 00:54:21 04:09 14.44
16 128 OLIVIER VANDENTEMPEL M/40-49 3 00:54:48 04:11 14.32
17 167 GREGORY FACQ M/40-49 4 00:54:57 04:12 14.28
18 346 BENOIT WALRAVENS M/30-39 6 00:55:12 04:13 14.22
19 342 BENOIT ANCIAUX M/30-39 7 00:55:27 04:14 14.15
20 344 CHRISTOPHE GHYSSELINCKX M/30-39 8 00:55:54 04:16 14.04
21 190 FRANCOIS BORCEUX M/40-49 5 00:55:59 04:17 14.02
22 165 GILLES VAN RAEMDONCK M/50-59 1 00:56:03 04:17 14.00
23 332 BRUNO VANHORICK M/50-59 2 00:56:18 04:18 13.94
24 361 SOFIAN LARACHI M/20-29 8 00:56:26 04:19 13.91
25 218 WILLIAM IANISKI DOS SANTOS M/30-39 9 00:56:50 04:21 13.81
26 208 PIERRE AUPAIX M/50-59 3 00:57:16 04:23 13.70
27 163 PHILIPPE LAHAYE M/50-59 4 00:57:21 04:23 13.68
28 337 ROMAIN DEBLANDER M/20-29 9 00:57:36 04:24 13.63
29 153 LUC VAN ROMPU M/50-59 5 00:57:52 04:25 13.56
30 185 PASCAL CORDIER M/40-49 6 00:58:03 04:26 13.52
31 326 DAMIEN DE PRA M/30-39 10 00:58:04 04:26 13.52
32 53 NICOLE DESILLE D/50-59 1 00:58:05 04:26 13.51
33 115 OLIVIER GAUSSET M/50-59 6 00:58:35 04:29 13.40
34 11 CAROLINE BAUS D/30-39 1 00:59:13 04:32 13.25
35 188 PATRICK DEFRAENE M/50-59 7 00:59:16 04:32 13.24
36 123 DANIEL QUINTELA M/40-49 7 00:59:21 04:32 13.22
37 131 VINCENT CESAR M/40-49 8 00:59:39 04:34 13.16
38 125 FRANCOIS DELHOVE M/30-39 11 00:59:49 04:34 13.12
39 352 ALFONSO CARLUCCIO M/30-39 12 00:59:55 04:35 13.10
40 104 ANGELO PONTI M/40-49 9 00:59:58 04:35 13.09
41 108 MATHIEU PUTZEYS M/30-39 13 01:00:06 04:36 13.06
42 134 JOSE VAN POUCKE M/50-59 8 01:00:07 04:36 13.05
43 357 ETIENNE BERREWAERTS M/60-69 1 01:00:11 04:36 13.04
44 184 RAFAEL MORALES M/40-49 10 01:00:25 04:37 12.99
45 197 SEBASTIEN DE WULF M/40-49 11 01:00:25 04:37 12.99
46 303 VALENTIN PEETERS M/15-19 2 01:00:28 04:37 12.98
47 132 ANDRE HENRY M/50-59 9 01:00:38 04:38 12.94
48 103 DIDIER DENDAL M/50-59 10 01:00:45 04:39 12.92
49 329 MARC VAN DEN BROECK M/60-69 2 01:00:51 04:39 12.90
50 227 CHRISTOPHE DELAERE M/50-59 11 01:00:58 04:40 12.87
51 43 MARION BAUWENS D/15-19 1 01:01:06 04:40 12.84
52 204 SEBASTIEN PEETERS M/40-49 12 01:01:07 04:40 12.84
53 174 CEDRIC DE SCHAETZEN M/50-59 12 01:01:18 04:41 12.80
54 10 NADIA VERLINDEN D/40-49 1 01:01:22 04:41 12.79
55 213 NICOLAS JOACHIM M/40-49 13 01:01:29 04:42 12.76
56 179 LAURENT-XAVIER DEPREZ M/40-49 14 01:01:38 04:43 12.73
57 161 GILLES DAUTREBANDE M/50-59 13 01:01:41 04:43 12.72
58 348 THIBAUT STOCKMANS M/30-39 14 01:01:45 04:43 12.71
59 166 JOE DECLERCQ M/50-59 14 01:02:03 04:45 12.65
60 202 NICOLAS EERTMANS M/40-49 15 01:02:28 04:47 12.56
61 334 PIERRE EMMANUEL COLPAERT M/20-29 10 01:02:37 04:47 12.53
62 176 BRUNO DEBLANDER M/50-59 15 01:02:43 04:48 12.51
63 130 EMIEL LUYTS M/50-59 16 01:02:46 04:48 12.50
64 345 THOMAS DEWANDRE M/30-39 15 01:02:58 04:49 12.46
65 322 JEAN-FRANCOIS DE PRINS M/15-19 3 01:03:11 04:50 12.42
66 151 SALVATORE SIRAGUSA M/40-49 16 01:03:15 04:50 12.41
67 189 JOEL DIERICKX M/40-49 17 01:03:21 04:51 12.39
68 341 DENIS MATTART M/20-29 11 01:03:25 04:51 12.38
69 25 CORINNE BAIX D/30-39 2 01:03:41 04:52 12.32
70 57 ZINA UMIDOVA D/30-39 3 01:03:41 04:52 12.32
71 168 BRUNO COURTIN M/40-49 18 01:04:20 04:55 12.20
72 315 JOSE CATIAUX M/60-69 3 01:04:24 04:55 12.19
73 139 JOHAN LEGRAND M/40-49 19 01:04:41 04:57 12.13
74 146 ANDY DUBRAI M/40-49 20 01:04:48 04:57 12.11
75 46 ANNE LEONARD D/40-49 2 01:05:17 04:59 12.02
76 225 PHILIP DE BOCK M/40-49 21 01:05:22 05:00 12.01
77 183 MARC DEPAUW M/50-59 17 01:05:22 05:00 12.01
78 144 XAVIER VERVLOESEM M/50-59 18 01:05:24 05:00 12.00
79 325 JEREMY RAGANATO M/20-29 12 01:05:30 05:00 11.98
80 156 OLIVIER MAGOTTE M/40-49 22 01:05:35 05:01 11.97
81 42 LINDA BOURQUIN D/50-59 2 01:05:43 05:01 11.94
82 186 PATRICE MINNE M/40-49 23 01:05:46 05:02 11.93
83 178 BERTRAND VANEGHEM M/40-49 24 01:05:53 05:02 11.91
84 187 PATRICK JACQUEMIN D/50-59 3 01:06:25 05:05 11.82
85 8 ESTELLE TIREZ D/50-59 4 01:06:25 05:05 11.82
86 127 FILIP LEEMANS M/40-49 25 01:06:30 05:05 11.80
87 310 PHILIPPE BASTIEN M/60-69 4 01:06:32 05:05 11.80
88 366 FABRICE SOREE M/30-39 16 01:06:56 05:07 11.73
89 147 ERIC MENU M/50-59 19 01:07:05 05:08 11.70
90 124 BERNARD CATOIRE M/50-59 20 01:07:12 05:08 11.68
91 119 PIERRE ZERGHE M/40-49 26 01:07:16 05:09 11.67
92 205 JEAN-PIERRE HEYMANS M/50-59 21 01:07:17 05:09 11.66
93 373 OLIVIER NOULARD M/30-39 17 01:07:26 05:09 11.64
94 304 DANIEL LISSENS M/70&+ 1 01:07:28 05:09 11.63
95 20 FLORENCE PIRSON D/40-49 3 01:07:30 05:10 11.63
96 378 JEAN-CHRISTOPHE CHAMPAGNE M/40-49 27 01:07:44 05:11 11.59
97 36 MAUREEN RAHIER D/40-49 4 01:07:48 05:11 11.58
98 374 CHARLES DELAERE M/15-19 4 01:07:51 05:11 11.57
99 12 STEPHANE DEBELLE D/30-39 4 01:08:07 05:12 11.52
100 317 JOANTAW LATTEU M/30-39 18 01:08:14 05:13 11.50
101 21 FANNY DRUART D/20-29 1 01:08:19 05:13 11.49
102 313 ANTOINE PIRENNE M/30-39 19 01:08:21 05:14 11.48
103 159 MARC BACHMANN M/50-59 22 01:08:28 05:14 11.46
104 51 SOPHIE COULONVAUX D/40-49 5 01:08:37 05:15 11.44
105 102 BENOIT REUSS M/50-59 23 01:08:53 05:16 11.39
106 16 MANON HENRY D/20-29 2 01:08:56 05:16 11.38
107 41 LOLA FLORENCE D/20-29 3 01:08:57 05:16 11.38
108 372 STEPHANE FAIVRE M/20-29 13 01:09:02 05:17 11.37
109 110 JEAN VANDAM M/50-59 24 01:09:07 05:17 11.35
110 71 LAETITIA DUJARDIN D/30-39 5 01:09:22 05:18 11.31
111 148 STEPHANE HEYMANS M/40-49 28 01:09:50 05:20 11.24
112 305 GASTON EYLENBOSCH M/60-69 5 01:10:05 05:21 11.20
113 118 DIDIER BAUDUIN M/50-59 25 01:10:17 05:22 11.17
114 226 NICOLAS PETIT M/40-49 29 01:10:17 05:22 11.17
115 350 EMMANUEL MEURICE M/30-39 20 01:10:45 05:25 11.09
116 222 THIERRY WERGIFOSSE M/40-49 30 01:11:02 05:26 11.05
117 306 CLAUDE VAN BAMIS M/60-69 6 01:11:05 05:26 11.04
118 224 THOMAS LECLERCQ M/40-49 31 01:11:06 05:26 11.04
119 217 PASCAL JERBAEME M/50-59 26 01:11:08 05:26 11.03
120 331 ANTONIO MACHADO M/60-69 7 01:11:21 05:27 11.00
121 210 CLAUDIO VIRNINHO M/40-49 32 01:11:38 05:29 10.96
122 175 PHILIPPE VANSCHOUBROEK M/40-49 33 01:11:56 05:30 10.91
123 47 ANNE-SOPHIE VAU HOUTTE D/50-59 5 01:11:56 05:30 10.91
124 206 THIBAUT PAGE M/30-39 21 01:12:07 05:31 10.88
125 228 CHRISTOPHER RANDALL M/50-59 27 01:12:15 05:31 10.86
126 101 MICHEL HOTAT M/40-49 34 01:12:17 05:32 10.86
127 200 ALAIN PALOME M/50-59 28 01:12:36 05:33 10.81
128 336 ALAIN SLUSE M/60-69 8 01:12:40 05:33 10.80
129 221 LUC LAURENT M/50-59 29 01:12:43 05:34 10.79
130 116 BENOIT PIQUARD M/50-59 30 01:12:43 05:34 10.79
131 158 PIERRE THIRION M/50-59 31 01:12:45 05:34 10.79
132 157 XAVIER THIRION M/40-49 35 01:12:47 05:34 10.78
133 109 PHILIPPE PEETERS M/50-59 32 01:12:48 05:34 10.78
134 72 ROLANDE GROSSEN D/60&+ 1 01:12:49 05:34 10.78
135 209 LAURENT VREVEN M/40-49 36 01:12:54 05:34 10.77
136 207 PAUL WILLIAMS M/40-49 37 01:12:59 05:35 10.75
137 140 CHRISTIAN COOLS M/50-59 33 01:13:04 05:35 10.74
138 215 PHILIPPE TIELEMANS M/50-59 34 01:13:06 05:35 10.74
139 182 JEAN-CLAUDE DALCQ M/50-59 35 01:13:12 05:36 10.72
140 172 PIERRE HENDRICKX M/50-59 36 01:13:17 05:36 10.71
141 308 JEAN-POL DEJONGHE M/60-69 9 01:13:19 05:36 10.70
142 371 FABIEN REIZER M/30-39 22 01:13:28 05:37 10.68
143 150 JEAN-MARC GHERAILLE M/50-59 37 01:13:46 05:38 10.64
144 333 CHRISTIAN DEPREZ M/60-69 10 01:13:50 05:39 10.63
145 73 CELINE MANISE D/20-29 4 01:14:02 05:40 10.60
146 40 LOUISE PAQUOT D/20-29 5 01:14:04 05:40 10.60
147 376 GILLES DAUVISTER M/30-39 23 01:14:08 05:40 10.59
148 323 ROLAND POULAIN M/70&+ 2 01:14:10 05:40 10.58
149 24 VALERIE VANDERVEKEN D/40-49 6 01:14:11 05:40 10.58
150 180 YVES PAULUS M/40-49 38 01:14:15 05:41 10.57
151 3 KARINE PARMENTIER D/40-49 7 01:14:31 05:42 10.53
152 164 MICHEL ALI-KHODJA M/50-59 38 01:14:35 05:42 10.52
153 56 ANNE WILSON D/30-39 6 01:14:37 05:42 10.52
154 195 JEAN-LOUIS FEYS M/50-59 39 01:15:19 05:45 10.42
155 19 INGRID PIRON D/40-49 8 01:15:31 05:46 10.39
156 171 DIDIER COLASSE M/40-49 39 01:15:34 05:47 10.39
157 191 JEAN-FRANCOIS DEMORTIER M/40-49 40 01:15:39 05:47 10.37
158 170 CHRISTOPHE COOREMAN M/40-49 41 01:15:53 05:48 10.34
159 79 ISABELLE HENNERESSE D/40-49 9 01:15:13 05:45 10.43
160 121 ALAIN DURIEUX M/50-59 40 01:16:15 05:50 10.29
161 177 CHRISTOPHE DEBRUYNE M/40-49 42 01:16:20 05:50 10.28
162 120 FRANCOIS VANDEN DRIESCH M/50-59 41 01:16:26 05:51 10.27
163 169 JOHN VANHOUTTE M/50-59 42 01:16:28 05:51 10.26
164 364 FREDERIC THIRY M/30-39 24 01:16:36 05:51 10.25
165 112 RUDI DE MOOR M/50-59 43 01:16:38 05:52 10.24
166 141 PIERRE PUYGRENIER M/50-59 44 01:16:43 05:52 10.23
167 117 BERNARD LAUWERS M/50-59 45 01:16:48 05:52 10.22
168 199 MICHEL COMPERE M/50-59 46 01:16:50 05:52 10.21
169 149 JEAN-PHILIPPE VAV ERP M/50-59 47 01:16:57 05:53 10.20
170 173 PHILIPPE BLAFFART M/50-59 48 01:17:06 05:54 10.18
171 100 DIDIER LEEMANS M/50-59 49 01:17:09 05:54 10.17
172 28 KARIN DELEU D/20-29 6 01:17:11 05:54 10.17
173 154 PATRICK DELEU M/50-59 50 01:17:12 05:54 10.17
174 320 CHRISTIAN PENING M/70 &+ 1 01:17:20 05:55 10.15
175 327 BENOIT TYTECA M/30-39 25 01:17:24 05:55 10.14
176 301 GEORGES KIN M/70 &+ 2 01:17:29 05:55 10.13
177 37 BENEDICTE LINARD D/40-49 10 01:17:30 05:56 10.13
178 196 BERTRAND VERKAEREN M/40-49 43 01:17:54 05:57 10.07
179 18 HEIDI SERRE D/50-59 6 01:18:21 05:59 10.02
180 81 MAGALI PIRSON D/40-49 11 01:18:29 06:00 10.00
181 13 CHARLENE VANDERLIN D/20-29 7 01:18:31 06:00 10.00
182 45 NATACHA VLAMINCK D/40-49 12 01:18:36 06:01 9.98
183 312 LUC VAN GOSSUM M/60-69 11 01:18:45 06:01 9.97
184 9 ANNE DE BRUYNE D/50-59 7 01:18:46 06:01 9.96
185 365 LIONEL VAN HOLLE M/30-39 26 01:18:51 06:02 9.95
186 74 HELOISE CHARLIER D/30-39 7 01:18:55 06:02 9.94
187 75 STEPHANIE MOREAU D/20-29 8 01:18:56 06:02 9.94
188 349 PAUL EMILE NACHTERGAELE M/60-69 12 01:19:10 06:03 9.91
189 192 PHILIPPE TASSET M/50-59 51 01:19:16 06:04 9.90
190 330 MARC DE MEES M/70 &+ 3 01:19:21 06:04 9.89
191 66 STEPHANIE THOMAS D/30-39 8 01:19:53 06:06 9.82
192 67 CHRISTELLE HUBLOUE D/40-49 13 01:20:23 06:09 9.76
193 54 REGINE FRANCOIS D/40-49 14 01:20:25 06:09 9.76
194 80 CLAUDIA CAMMAS D/50-59 8 01:20:41 06:10 9.73
195 29 FRANCOISE DUPLAT D/40-49 15 01:20:44 06:10 9.72
196 62 HILDE DE WINTER D/50-59 9 01:20:48 06:11 9.71
197 194 JEAN- PHILIPPE HEYMANS M/50-59 52 01:20:52 06:11 9.70
198 30 LUDIVINE DUMONT D/40-49 16 01:20:53 06:11 9.70
199 52 AGNES VETS D/60 &+ 1 01:21:31 06:14 9.63
200 113 LUC ROTSAERT M/50-59 53 01:21:32 06:14 9.63
201 23 DOMINIQUE SCALAIS D/40-49 17 01:21:46 06:15 9.60
202 114 CEDRIC TYTZCA M/40-49 44 01:22:07 06:17 9.56
203 201 HERVE VALENTIN M/40-49 45 01:22:10 06:17 9.55
204 155 EMMANUEL TYTECA M/40-49 46 01:22:13 06:17 9.55
205 34 BRIGITTE BAWIN D/60 &+ 2 01:22:30 06:18 9.51
206 59 VIRGINIE MORLOT D/30-39 9 01:22:56 06:20 9.46
207 375 OLIVIER RAYMOND M/50-59 54 01:22:58 06:21 9.46
208 14 CARINE DEKEYSER D/50-59 10 01:23:19 06:22 9.42
209 126 CHRISTIAN SCHELLENS M/50-59 55 01:23:19 06:22 9.42
210 369 YVES GROSSEN M/60-69 13 01:23:22 06:22 9.41
211 65 FRANCOISE FABRY D/40-49 18 01:23:34 06:23 9.39
212 135 ERIC HERION M/40-49 47 01:23:39 06:24 9.38
213 223 ETIENNE BILLAT M/50-59 56 01:24:03 06:26 9.34
214 61 KATIA DELVAILLE D/50-59 11 01:24:06 06:26 9.33
215 58 SARAH LIEGEOIS D/40-49 19 01:24:08 06:26 9.33
216 32 MARTINE PLETINCKX D/60 &+ 3 01:24:19 06:27 9.31
217 129 ALAIN DEPREZ M/50-59 57 01:24:20 06:27 9.31
218 311 ARTHURE TYTZCA M/15-19 5 01:24:24 06:27 9.30
219 340 ROGER KEYMOLEN M/60-69 14 01:24:29 06:28 9.29
220 143 ERIC VARVENNE M/50-59 58 01:24:32 06:28 9.28
221 55 NATHALIE CUVELIER D/30-39 10 01:24:41 06:28 9.27
222 48 CAROLINE BINARD D/40-49 20 01:25:26 06:32 9.19
223 50 PAULINE VAN HAUTE D/20-29 9 01:25:29 06:32 9.18
224 83 FRANCOISE DUPLAT D/40-49 21 01:25:32 06:32 9.18
225 162 JEAN LUC PRAIL M/40-49 48 01:25:49 06:34 9.15
226 49 CHRISTINE DUVIVIER D/50-59 12 01:25:51 06:34 9.14
227 319 GIUSEPPE CESCHIN M/60-69 15 01:26:13 06:35 9.10
228 181 IVAN MEEREMANS M/50-59 59 01:26:38 06:37 9.06
229 76 EVELINE FRISQUE D/30-39 11 01:26:51 06:38 9.04
230 35 CLAUDIA MACEDO D/50-59 13 01:27:24 06:41 8.98
231 335 MICHEL CORTVRINT M/60-69 16 01:27:27 06:41 8.97
232 70 MARIE FRANCE MATHYS D/50-59 14 01:28:02 06:44 8.91
233 31 MANON BATAILLE D/20-29 10 01:28:17 06:45 8.89
234 69 PATRICIA THIBAUT D/50-59 15 01:28:28 06:46 8.87
235 122 THIERRY THIBAUT M/40-49 49 01:28:44 06:47 8.84
236 39 LAURENCE BRIBOSIA D/50-59 16 01:28:45 06:47 8.84
237 78 SANDRINE VETS D/40-49 22 01:29:20 06:50 8.79
238 63 CAROLINE LEGRAND D/40-49 23 01:29:22 06:50 8.78
239 77 SOPHIE DESSART D/40-49 24 01:29:32 06:51 8.77
240 193 LUC CUVELIER M/50-59 60 01:29:46 06:52 8.74
241 5 ISABELLE VAN GORP D/40-49 25 01:29:52 06:52 8.73
242 4 SABINE DENIS D/40-49 26 01:30:02 06:53 8.72
243 111 WILLIAM WOUTERS M/40-49 50 01:30:19 06:54 8.69
244 68 MARIE-HELENE DEFRETIN D/40-49 27 01:30:35 06:56 8.66
245 318 JO MOMMAERTS M/70 &+ 4 01:30:38 06:56 8.66
246 60 ANNICK CROONENBORGHS D/50-59 17 01:31:29 07:00 8.58
247 38 ALICIA JABER D/20-29 11 01:31:32 07:00 8.57
248 321 MARCEL DENIS M/70 &+ 5 01:32:22 07:04 8.50
249 15 ANNE DEHAYE D/40-49 28 01:32:27 07:04 8.49
250 64 JULIE NOEL D/40-49 29 01:33:10 07:07 8.42
251 138 ERIC VANDEREYD M/50-59 61 01:35:25 07:18 8.22
252 302 PAUL FINE M/60-69 17 01:39:44 07:37 7.87
253 26         PASCALE GIET D/50-59 18 01:42:45 07:51 7.64
254 27 GEESLIE ELZINGA D/50-59 19 01:42:48 07:52 7.63
255 377 GÉRAUD GEORGES M/30-39 27 01:43:45 07:56 7.56
256 362 EDOUARD MAKINTOSH M/60-69 18 01:49:08 08:21 7.19
257 370 PATRICE PIRSON M/60-69 19 01:49:47 08:24 7.15
258 33 WIVINE BLAKE D/50-59 20 01:51:04 08:29 7.07
259 142 BERNARD FONTAINE M/50-59 62 01:51:07 08:30 7.06
260 2 ANDREE JOURET D/60 &+ 4 01:52:00 08:34 7.01
261 17 VALERIE VAN POUCKE D/30-39 12 01:52:00 08:34 7.01